createdAt,value
2022-08-09T00:04:37.517Z,99.90
2022-08-09T00:07:07.675Z,99.90
2022-08-09T00:09:38.486Z,99.90
2022-08-09T00:12:07.034Z,99.90
2022-08-09T00:14:38.046Z,99.90
2022-08-09T00:17:06.372Z,99.90
2022-08-09T00:19:33.949Z,99.90
2022-08-09T00:25:10.033Z,99.90
2022-08-09T00:27:42.975Z,99.90
2022-08-09T00:30:25.512Z,99.90
2022-08-09T00:32:53.698Z,99.90
2022-08-09T00:35:23.676Z,99.90
2022-08-09T00:37:51.213Z,99.90
2022-08-09T00:40:20.249Z,99.90
2022-08-09T00:48:11.084Z,99.90
2022-08-09T00:50:43.160Z,99.90
2022-08-09T00:53:11.867Z,99.90
2022-08-09T00:56:03.941Z,99.90
2022-08-09T00:58:27.937Z,99.90
2022-08-09T01:08:59.825Z,99.90
2022-08-09T01:11:40.361Z,99.90
2022-08-09T01:14:28.864Z,99.90
2022-08-09T01:17:09.031Z,99.90
2022-08-09T01:20:01.677Z,99.90
2022-08-09T01:22:57.232Z,99.90
2022-08-09T01:28:15.177Z,99.90
2022-08-09T01:30:52.647Z,99.90
2022-08-09T01:33:24.294Z,99.90
2022-08-09T01:35:59.105Z,99.90
2022-08-09T01:38:30.652Z,99.90
2022-08-09T01:41:04.998Z,99.90
2022-08-09T01:43:50.746Z,99.90
2022-08-09T01:51:26.161Z,99.90
2022-08-09T01:53:57.960Z,99.90
2022-08-09T01:56:27.212Z,99.90
2022-08-09T01:58:55.655Z,99.90
2022-08-09T02:01:34.753Z,99.90
2022-08-09T02:04:13.917Z,99.90
2022-08-09T02:07:02.710Z,99.90
2022-08-09T02:14:31.251Z,99.90
2022-08-09T02:17:15.042Z,99.90
2022-08-09T02:22:46.952Z,99.90
2022-08-09T02:25:21.243Z,99.90
2022-08-09T02:28:00.137Z,99.90
2022-08-09T02:30:37.531Z,99.90
2022-08-09T02:38:27.843Z,99.90
2022-08-09T02:41:03.510Z,99.90
2022-08-09T02:43:47.716Z,99.90
2022-08-09T02:46:21.692Z,99.90
2022-08-09T02:48:51.235Z,99.90
2022-08-09T02:51:20.475Z,99.90
2022-08-09T02:54:00.884Z,99.90
2022-08-09T02:59:26.547Z,99.90
2022-08-09T03:02:09.770Z,99.90
2022-08-09T03:04:46.711Z,99.90
2022-08-09T03:07:20.160Z,99.90
2022-08-09T03:09:56.225Z,99.90
2022-08-09T03:12:26.288Z,99.90
2022-08-09T03:14:56.563Z,99.90
2022-08-09T03:22:31.102Z,99.90
2022-08-09T03:25:26.124Z,99.90
2022-08-09T03:27:51.107Z,99.90
2022-08-09T03:30:29.482Z,99.90
2022-08-09T03:33:12.643Z,99.90
2022-08-09T03:36:12.490Z,99.90
2022-08-09T03:38:34.379Z,99.90
2022-08-09T03:46:04.684Z,99.90
2022-08-09T03:48:52.029Z,99.90
2022-08-09T03:51:44.442Z,99.90
2022-08-09T03:54:11.062Z,99.90
2022-08-09T03:56:41.140Z,99.90
2022-08-09T03:59:17.264Z,99.90
2022-08-09T04:01:59.257Z,99.90
2022-08-09T04:07:47.309Z,99.90
2022-08-09T04:10:20.546Z,99.90
2022-08-09T04:12:51.342Z,99.90
2022-08-09T04:15:40.496Z,99.90
2022-08-09T04:18:07.998Z,99.90
2022-08-09T04:20:35.188Z,99.90
2022-08-09T04:23:03.258Z,99.90
2022-08-09T04:25:37.835Z,99.90
2022-08-09T04:33:10.230Z,99.90
2022-08-09T04:35:39.481Z,99.90
2022-08-09T04:38:10.148Z,99.90
2022-08-09T04:40:56.034Z,99.90
2022-08-09T04:43:25.405Z,99.90
2022-08-09T04:45:53.035Z,99.90
2022-08-09T04:48:57.525Z,99.90
2022-08-09T04:54:08.796Z,99.90
2022-08-09T04:56:37.372Z,99.90
2022-08-09T04:59:12.970Z,99.90
2022-08-09T05:01:42.850Z,99.90
2022-08-09T05:04:10.841Z,99.90
2022-08-09T05:06:41.618Z,99.90
2022-08-09T05:09:12.600Z,99.90
2022-08-09T05:18:37.642Z,99.90
2022-08-09T05:20:04.384Z,99.90
2022-08-09T05:22:36.100Z,99.90
2022-08-09T05:25:19.188Z,99.90
2022-08-09T05:27:48.036Z,99.90
2022-08-09T05:30:17.526Z,99.90
2022-08-09T05:32:45.699Z,99.90
2022-08-09T05:40:28.040Z,99.90
2022-08-09T05:42:55.867Z,99.90
2022-08-09T05:45:24.825Z,99.90
2022-08-09T05:47:57.973Z,99.90
2022-08-09T05:50:50.696Z,99.90
2022-08-09T05:53:21.878Z,99.90
2022-08-09T05:56:01.690Z,99.90
2022-08-09T06:03:43.899Z,99.90
2022-08-09T06:06:21.768Z,99.90
2022-08-09T06:08:52.800Z,99.90
2022-08-09T06:11:20.490Z,99.90
2022-08-09T06:14:07.700Z,99.90
2022-08-09T06:16:35.303Z,99.90
2022-08-09T06:19:03.868Z,99.90
2022-08-09T06:26:43.639Z,99.90
2022-08-09T06:29:14.983Z,99.90
2022-08-09T06:32:18.399Z,99.90
2022-08-09T06:34:30.781Z,99.90
2022-08-09T06:36:59.742Z,99.90
2022-08-09T06:39:48.660Z,99.90
2022-08-09T06:42:17.220Z,99.90
2022-08-09T06:50:13.783Z,99.90
2022-08-09T06:52:45.526Z,99.90
2022-08-09T06:55:14.948Z,99.90
2022-08-09T06:58:01.228Z,99.90
2022-08-09T07:00:51.954Z,99.90
2022-08-09T07:03:16.960Z,99.90
2022-08-09T07:05:58.538Z,99.90
2022-08-09T07:13:30.968Z,99.90
2022-08-09T07:16:41.998Z,99.90
2022-08-09T07:18:59.679Z,99.90
2022-08-09T07:21:27.046Z,99.90
2022-08-09T07:23:58.509Z,99.90
2022-08-09T07:26:26.243Z,99.90
2022-08-09T07:29:08.289Z,99.90
2022-08-09T07:36:42.220Z,99.90
2022-08-09T07:39:20.454Z,99.90
2022-08-09T07:42:03.034Z,99.90
2022-08-09T07:44:50.924Z,99.90
2022-08-09T07:47:20.898Z,99.90
2022-08-09T07:50:05.270Z,99.90
2022-08-09T07:55:16.401Z,99.90
2022-08-09T07:57:47.673Z,99.90
2022-08-09T08:00:20.822Z,99.90
2022-08-09T08:03:04.613Z,99.90
2022-08-09T08:05:53.598Z,99.90
2022-08-09T08:09:01.779Z,99.90
2022-08-09T08:12:10.785Z,99.90
2022-08-09T08:19:02.968Z,99.90
2022-08-09T08:21:30.943Z,99.90
2022-08-09T08:24:01.229Z,99.90
2022-08-09T08:26:54.870Z,99.90
2022-08-09T08:29:27.935Z,99.90
2022-08-09T08:32:03.182Z,99.90
2022-08-09T08:34:34.386Z,99.90
2022-08-09T08:42:07.999Z,99.90
2022-08-09T08:44:37.537Z,99.90
2022-08-09T08:47:12.906Z,99.90
2022-08-09T08:49:47.024Z,99.90
2022-08-09T08:52:58.248Z,99.90
2022-08-09T08:55:06.386Z,99.90
2022-08-09T08:57:37.160Z,99.90
2022-08-09T09:07:36.938Z,99.90
2022-08-09T09:10:11.089Z,99.90
2022-08-09T09:12:38.881Z,99.90
2022-08-09T09:15:08.380Z,98.20
2022-08-09T09:17:48.393Z,97.80
2022-08-09T09:20:17.321Z,97.20
2022-08-09T09:22:53.819Z,96.10
2022-08-09T09:33:15.707Z,94.20
2022-08-09T09:35:53.097Z,93.90
2022-08-09T09:38:46.100Z,93.80
2022-08-09T09:41:33.153Z,93.30
2022-08-09T09:44:25.930Z,93.00
2022-08-09T09:47:04.938Z,92.80
2022-08-09T09:49:56.371Z,92.20
2022-08-09T09:58:00.773Z,91.90
2022-08-09T10:00:24.914Z,91.00
2022-08-09T10:02:54.251Z,89.70
2022-08-09T10:05:27.207Z,89.50
2022-08-09T10:08:27.411Z,87.90
2022-08-09T10:10:56.018Z,88.50
2022-08-09T10:13:43.229Z,88.00
2022-08-09T10:21:16.372Z,86.50
2022-08-09T10:23:45.038Z,86.80
2022-08-09T10:26:15.385Z,86.60
2022-08-09T10:28:49.061Z,84.00
2022-08-09T10:34:32.890Z,82.30
2022-08-09T10:37:04.598Z,82.00
2022-08-09T10:44:42.779Z,83.70
2022-08-09T10:48:20.426Z,83.50
2022-08-09T10:50:32.836Z,83.30
2022-08-09T10:53:10.646Z,84.60
2022-08-09T10:55:55.147Z,83.20
2022-08-09T10:58:34.905Z,83.20
2022-08-09T11:03:03.033Z,82.40
2022-08-09T11:09:19.571Z,83.30
2022-08-09T11:12:17.189Z,83.30
2022-08-09T11:14:55.940Z,81.90
2022-08-09T11:18:03.567Z,82.10
2022-08-09T11:20:49.681Z,81.70
2022-08-09T11:23:30.184Z,79.80
2022-08-09T11:28:56.171Z,79.70
2022-08-09T11:31:49.504Z,79.10
2022-08-09T11:34:31.549Z,78.40
2022-08-09T11:37:01.561Z,80.00
2022-08-09T11:39:38.042Z,78.40
2022-08-09T11:42:09.359Z,78.80
2022-08-09T11:44:49.224Z,78.30
2022-08-09T11:53:28.001Z,78.60
2022-08-09T11:55:52.495Z,76.10
2022-08-09T11:58:48.137Z,76.30
2022-08-09T12:02:01.186Z,76.80
2022-08-09T12:04:08.940Z,75.40
2022-08-09T12:06:55.630Z,76.80
2022-08-09T12:17:42.979Z,76.70
2022-08-09T12:20:16.825Z,77.20
2022-08-09T12:22:56.152Z,77.70
2022-08-09T12:25:36.355Z,75.60
2022-08-09T12:29:10.434Z,76.90
2022-08-09T12:31:01.308Z,76.40
2022-08-09T12:41:25.457Z,77.40
2022-08-09T12:44:04.853Z,78.00
2022-08-09T12:46:36.107Z,78.80
2022-08-09T12:49:07.117Z,80.40
2022-08-09T12:52:00.133Z,81.00
2022-08-09T12:54:23.987Z,79.70
2022-08-09T12:56:56.469Z,79.40
2022-08-09T13:07:28.464Z,79.40
2022-08-09T13:10:08.687Z,77.20
2022-08-09T13:13:10.825Z,78.30
2022-08-09T13:15:37.027Z,77.70
2022-08-09T13:18:09.674Z,77.50
2022-08-09T13:22:33.773Z,79.40
2022-08-09T13:24:17.051Z,79.00
2022-08-09T13:32:16.240Z,79.30
2022-08-09T13:34:49.886Z,78.00
2022-08-09T13:37:51.120Z,77.80
2022-08-09T13:41:52.043Z,77.90
2022-08-09T13:42:57.292Z,78.30
2022-08-09T13:45:32.281Z,79.30
2022-08-09T13:48:14.666Z,78.70
2022-08-09T13:55:41.168Z,80.00
2022-08-09T13:58:14.768Z,80.10
2022-08-09T14:00:50.505Z,80.90
2022-08-09T14:04:03.809Z,80.40
2022-08-09T14:06:11.948Z,80.20
2022-08-09T14:08:47.637Z,79.70
2022-08-09T14:11:16.536Z,78.90
2022-08-09T14:18:51.696Z,77.60
2022-08-09T14:21:21.071Z,78.00
2022-08-09T14:23:56.706Z,78.30
2022-08-09T14:26:30.577Z,77.70
2022-08-09T14:29:02.877Z,77.00
2022-08-09T14:31:36.091Z,77.70
2022-08-09T14:41:40.327Z,78.10
2022-08-09T14:44:11.593Z,78.30
2022-08-09T14:47:01.451Z,78.90
2022-08-09T14:49:26.118Z,79.60
2022-08-09T14:52:55.277Z,79.50
2022-08-09T14:55:22.817Z,78.90
2022-08-09T14:57:51.543Z,79.10
2022-08-09T15:05:23.457Z,77.60
2022-08-09T15:07:54.744Z,77.80
2022-08-09T15:10:25.353Z,77.80
2022-08-09T15:12:53.278Z,78.40
2022-08-09T15:15:21.958Z,78.20
2022-08-09T15:17:52.545Z,78.40
2022-08-09T15:21:58.696Z,78.20
2022-08-09T15:31:10.124Z,79.30
2022-08-09T15:34:19.545Z,80.20
2022-08-09T15:36:30.724Z,81.00
2022-08-09T15:39:00.051Z,80.40
2022-08-09T15:41:31.224Z,80.30
2022-08-09T15:44:00.427Z,80.30
2022-08-09T15:46:33.249Z,80.70
2022-08-09T15:56:29.065Z,80.90
2022-08-09T15:58:58.303Z,81.20
2022-08-09T16:01:25.579Z,81.20
2022-08-09T16:03:53.496Z,81.20
2022-08-09T16:06:34.816Z,81.10
2022-08-09T16:09:05.175Z,80.90
2022-08-09T16:11:34.248Z,80.00
2022-08-09T16:22:00.391Z,79.80
2022-08-09T16:24:32.936Z,80.90
2022-08-09T16:27:01.409Z,80.70
2022-08-09T16:29:36.746Z,81.40
2022-08-09T16:32:17.892Z,81.50
2022-08-09T16:34:58.322Z,80.70
2022-08-09T16:37:53.588Z,80.50
2022-08-09T16:42:56.496Z,80.70
2022-08-09T16:45:23.553Z,80.80
2022-08-09T16:48:40.827Z,81.10
2022-08-09T16:50:58.789Z,80.40
2022-08-09T16:53:32.594Z,80.80
2022-08-09T16:56:07.533Z,81.30
2022-08-09T16:58:42.736Z,81.40
2022-08-09T17:06:31.615Z,81.60
2022-08-09T17:09:43.893Z,82.30
2022-08-09T17:11:52.530Z,81.60
2022-08-09T17:14:27.611Z,81.50
2022-08-09T17:16:59.931Z,81.80
2022-08-09T17:19:46.554Z,82.20
2022-08-09T17:22:16.026Z,82.30
2022-08-09T17:28:19.418Z,82.80
2022-08-09T17:30:48.132Z,83.00
2022-08-09T17:33:22.274Z,83.10
2022-08-09T17:35:50.489Z,83.20
2022-08-09T17:38:32.183Z,83.10
2022-08-09T17:41:04.969Z,83.30
2022-08-09T17:43:37.125Z,83.50
2022-08-09T17:51:18.399Z,82.90
2022-08-09T17:53:52.115Z,83.30
2022-08-09T17:56:26.731Z,83.80
2022-08-09T17:58:57.176Z,83.40
2022-08-09T18:01:24.894Z,83.80
2022-08-09T18:03:54.377Z,83.70
2022-08-09T18:06:31.727Z,84.20
2022-08-09T18:16:29.091Z,84.10
2022-08-09T18:19:03.520Z,84.70
2022-08-09T18:21:41.183Z,84.90
2022-08-09T18:24:14.521Z,85.40
2022-08-09T18:26:48.047Z,85.50
2022-08-09T18:30:40.711Z,85.30
2022-08-09T18:32:08.306Z,85.20
2022-08-09T18:37:47.624Z,86.10
2022-08-09T18:40:27.033Z,86.00
2022-08-09T18:42:57.531Z,86.60
2022-08-09T18:46:47.501Z,87.00
2022-08-09T18:48:12.588Z,87.50
2022-08-09T18:50:46.016Z,88.40
2022-08-09T18:53:19.649Z,87.70
2022-08-09T19:00:59.533Z,88.30
2022-08-09T19:03:29.326Z,88.60
2022-08-09T19:06:18.738Z,88.70
2022-08-09T19:08:55.294Z,88.80
2022-08-09T19:11:37.726Z,88.90
2022-08-09T19:14:08.216Z,89.10
2022-08-09T19:16:38.069Z,89.50
2022-08-09T19:24:36.260Z,89.60
2022-08-09T19:27:08.816Z,90.40
2022-08-09T19:30:22.281Z,90.50
2022-08-09T19:32:29.542Z,90.50
2022-08-09T19:35:01.050Z,90.50
2022-08-09T19:37:41.201Z,90.70
2022-08-09T19:40:22.227Z,90.80
2022-08-09T19:47:57.259Z,91.20
2022-08-09T19:50:50.877Z,91.50
2022-08-09T19:53:14.889Z,91.60
2022-08-09T19:56:03.405Z,91.70
2022-08-09T19:58:37.267Z,91.90
2022-08-09T20:01:08.421Z,92.10
2022-08-09T20:04:10.485Z,92.20
2022-08-09T20:10:40.619Z,92.30
2022-08-09T20:13:15.497Z,92.50
2022-08-09T20:16:33.263Z,92.60
2022-08-09T20:19:03.624Z,92.60
2022-08-09T20:21:54.709Z,92.60
2022-08-09T20:24:33.678Z,92.70
2022-08-09T20:29:49.587Z,93.00
2022-08-09T20:32:30.923Z,93.10
2022-08-09T20:35:09.377Z,93.30
2022-08-09T20:38:21.087Z,93.30
2022-08-09T20:40:30.728Z,93.40
2022-08-09T20:43:18.747Z,93.40
2022-08-09T20:53:39.080Z,93.50
2022-08-09T20:56:17.331Z,93.80
2022-08-09T20:58:49.475Z,93.70
2022-08-09T21:01:35.245Z,93.70
2022-08-09T21:05:48.179Z,93.60
2022-08-09T21:06:54.470Z,93.80
2022-08-09T21:09:32.618Z,94.00
2022-08-09T21:20:19.564Z,94.20
2022-08-09T21:22:38.615Z,94.50
2022-08-09T21:25:26.209Z,94.70
2022-08-09T21:28:07.401Z,94.70
2022-08-09T21:30:37.032Z,94.90
2022-08-09T21:33:07.702Z,95.00
2022-08-09T21:35:39.493Z,95.10
2022-08-09T21:40:57.336Z,95.30
2022-08-09T21:43:56.456Z,96.00
2022-08-09T21:46:13.812Z,95.60
2022-08-09T21:48:42.769Z,95.80
2022-08-09T21:51:24.570Z,95.80
2022-08-09T21:54:03.939Z,95.90
2022-08-09T21:56:43.191Z,96.20
2022-08-09T22:04:54.998Z,96.50
2022-08-09T22:07:12.231Z,97.00
2022-08-09T22:09:43.561Z,97.20
2022-08-09T22:12:18.488Z,97.30
2022-08-09T22:14:46.611Z,97.50
2022-08-09T22:17:13.819Z,97.70
2022-08-09T22:19:58.077Z,97.90
2022-08-09T22:27:32.541Z,98.30
2022-08-09T22:30:04.859Z,98.60
2022-08-09T22:32:32.836Z,98.70
2022-08-09T22:35:02.479Z,98.60
2022-08-09T22:37:40.079Z,99.20
2022-08-09T22:40:10.330Z,99.10
2022-08-09T22:42:45.896Z,99.40
2022-08-09T22:50:15.030Z,99.60
2022-08-09T22:52:42.046Z,99.90
2022-08-09T22:55:21.939Z,99.90
2022-08-09T22:57:59.887Z,99.90
2022-08-09T23:00:29.493Z,99.90
2022-08-09T23:02:57.115Z,99.90
2022-08-09T23:05:26.717Z,99.90
2022-08-09T23:10:33.366Z,99.90
2022-08-09T23:13:00.757Z,99.90
2022-08-09T23:15:28.687Z,99.90
2022-08-09T23:17:56.468Z,99.90
2022-08-09T23:20:25.568Z,99.90
2022-08-09T23:22:52.838Z,99.90
2022-08-09T23:25:20.217Z,99.90
2022-08-09T23:30:28.566Z,99.90
2022-08-09T23:32:56.619Z,99.90
2022-08-09T23:35:24.358Z,99.90
2022-08-09T23:37:51.730Z,99.90
2022-08-09T23:40:18.999Z,99.90
2022-08-09T23:42:45.893Z,99.90
2022-08-09T23:45:36.474Z,99.90
2022-08-09T23:55:31.990Z,99.90
2022-08-09T23:58:07.279Z,99.90
